This is the latest recevied weather packets stored in our database for station/object VE3MJM-WX. If no packets are shown the sender has not sent any weather packets the latest 10 day(s).
| Time | Temp. | Humidity | Pressure | Rain* | Wind** | Luminosity | Snow |
|---|---|---|---|---|---|---|---|
| 1777561467 | 6.67° C | 78% | 1006.8 hPa | 0 mm | - | - | - |
| 1777560565 | 6.11° C | 79% | 1006.7 hPa | 0 mm | - | - | - |
| 1777559662 | 6.11° C | 80% | 1006.4 hPa | 0 mm | - | - | - |
| 1777558760 | 6.67° C | 78% | 1006.3 hPa | 0 mm | - | - | - |
| 1777557857 | 6.67° C | 82% | 1006.4 hPa | 0 mm | - | - | - |
| 1777557008 | 6.11° C | 85% | 1006.6 hPa | 0 mm | - | - | - |
| 1777556955 | 6.11° C | 85% | 1006.6 hPa | 0 mm | - | - | - |
| 1777556052 | 5.56° C | 85% | 1006.5 hPa | 0 mm | - | - | - |
| 1777555149 | 5.56° C | 87% | 1006.7 hPa | 0 mm | - | - | - |
| 1777554247 | 5° C | 88% | 1006.6 hPa | 0 mm | - | - | - |
| 1777553344 | 4.44° C | 89% | 1006.9 hPa | 0 mm | - | - | - |
| 1777552442 | 4.44° C | 89% | 1006.7 hPa | 0 mm | - | - | - |
| 1777551539 | 3.89° C | 90% | 1006.6 hPa | 0 mm | - | - | - |
| 1777550637 | 3.89° C | 91% | 1006.6 hPa | 0 mm | - | - | - |
| 1777549734 | 3.89° C | 91% | 1006.8 hPa | 0 mm | - | - | - |
| 1777548831 | 3.89° C | 91% | 1006.4 hPa | 0 mm | - | - | - |
| 1777547929 | 3.33° C | 92% | 1006.5 hPa | 0 mm | - | - | - |
| 1777547026 | 3.33° C | 91% | 1006.3 hPa | 0 mm | - | - | - |
| 1777546124 | 3.33° C | 91% | 1006.2 hPa | 0 mm | - | - | - |
| 1777545221 | 3.33° C | 91% | 1005.9 hPa | 0 mm | - | - | - |
| 1777544349 | 3.33° C | 91% | 1006 hPa | 0 mm | - | - | - |
| 1777543446 | 3.33° C | 90% | 1005.8 hPa | 0 mm | - | - | - |
| 1777542544 | 3.33° C | 90% | 1005.8 hPa | 0 mm | - | - | - |
| 1777541641 | 3.33° C | 89% | 1005.9 hPa | 0 mm | - | - | - |
| 1777540739 | 3.89° C | 88% | 1005.8 hPa | 0 mm | - | - | - |
* Rain latest hour (hover to see other rain measurements)
** Current wind speed in m/s (hover to see current wind gust speed)